Time;durP1;ratioP1;P1;durP2;ratioP2;P2;SDS_P1;SDS_P2;PMS_P1;PMS_P2;Temp;Humidity;BMP_temperature;BMP_pressure;BME280_temperature;BME280_humidity;BME280_pressure;Samples;Min_cycle;Max_cycle;Signal;HPM_P1;HPM_P2
2021/01/15 00:01:11;;;;;;;27.20;18.77;;;;;;;;;;10120660;28;20082;-62
2021/01/15 00:06:09;;;;;;;24.42;17.90;;;;;;;;;;10121010;28;20560;-62
2021/01/15 00:11:14;;;;;;;25.30;16.23;;;;;;;;;;10102334;28;20117;-62
2021/01/15 00:16:21;;;;;;;18.48;13.52;;;;;;;;;;10120635;28;20070;-62
2021/01/15 00:21:24;;;;;;;19.08;14.68;;;;;;;;;;10120417;28;20528;-63
2021/01/15 00:26:22;;;;;;;25.20;17.13;;;;;;;;;;10120113;28;20053;-63
2021/01/15 00:31:19;;;;;;;19.55;14.48;;;;;;;;;;10118989;28;20090;-62
2021/01/15 00:36:18;;;;;;;17.98;13.10;;;;;;;;;;10118985;28;20468;-61
2021/01/15 00:41:16;;;;;;;18.80;13.88;;;;;;;;;;10119148;28;20085;-61
2021/01/15 00:46:14;;;;;;;17.67;12.15;;;;;;;;;;10117556;28;20078;-62
2021/01/15 00:51:12;;;;;;;15.82;13.25;;;;;;;;;;10118520;28;20074;-63
2021/01/15 00:56:09;;;;;;;17.60;12.73;;;;;;;;;;10100868;28;20095;-62
2021/01/15 01:01:11;;;;;;;17.63;12.50;;;;;;;;;;10099981;28;20051;-62
2021/01/15 01:06:17;;;;;;;16.98;12.68;;;;;;;;;;10100731;28;20058;-63
2021/01/15 01:11:14;;;;;;;15.70;11.63;;;;;;;;;;10117492;28;20105;-62
2021/01/15 01:16:14;;;;;;;14.23;11.23;;;;;;;;;;10117330;28;20085;-63
2021/01/15 01:21:12;;;;;;;17.30;12.32;;;;;;;;;;10115826;28;20078;-63
2021/01/15 01:26:10;;;;;;;17.92;11.65;;;;;;;;;;10117814;28;20078;-62
2021/01/15 01:31:07;;;;;;;23.67;14.68;;;;;;;;;;10117973;28;20078;-63
2021/01/15 01:36:07;;;;;;;16.60;12.50;;;;;;;;;;10117607;28;20090;-62
2021/01/15 01:41:04;;;;;;;17.25;10.95;;;;;;;;;;10117235;28;20497;-62
2021/01/15 01:46:04;;;;;;;15.23;10.48;;;;;;;;;;10117055;28;20074;-62
2021/01/15 01:51:02;;;;;;;15.30;10.48;;;;;;;;;;10117184;28;20085;-62
2021/01/15 01:56:02;;;;;;;14.00;10.40;;;;;;;;;;10121498;28;20043;-62
2021/01/15 02:01:01;;;;;;;24.08;14.45;;;;;;;;;;10116922;28;20082;-63
2021/01/15 02:05:59;;;;;;;28.92;16.42;;;;;;;;;;10115961;28;20078;-61
2021/01/15 02:11:09;;;;;;;27.60;14.65;;;;;;;;;;10115503;28;20094;-62
2021/01/15 02:16:08;;;;;;;15.90;11.13;;;;;;;;;;10115777;28;20913;-62
2021/01/15 02:21:32;;;;;;;22.90;14.52;;;;;;;;;;10116565;28;20058;-62
2021/01/15 02:26:47;;;;;;;12.68;10.05;;;;;;;;;;10115046;28;20051;-63
2021/01/15 02:32:06;;;;;;;13.52;10.07;;;;;;;;;;10115334;28;20086;-63
2021/01/15 02:37:06;;;;;;;18.30;14.85;;;;;;;;;;10114755;28;20074;-63
2021/01/15 02:42:04;;;;;;;16.45;12.52;;;;;;;;;;10114613;28;20086;-62
2021/01/15 02:47:06;;;;;;;13.02;9.48;;;;;;;;;;10114694;28;20089;-63
2021/01/15 02:52:05;;;;;;;14.63;10.00;;;;;;;;;;10114672;28;20488;-63
2021/01/15 02:57:02;;;;;;;11.35;9.40;;;;;;;;;;10113467;28;20082;-61
2021/01/15 03:02:01;;;;;;;12.60;9.73;;;;;;;;;;10113677;28;20058;-64
2021/01/15 03:07:01;;;;;;;14.07;10.13;;;;;;;;;;10113639;28;20089;-64
2021/01/15 03:12:00;;;;;;;16.50;10.82;;;;;;;;;;10113764;28;20098;-63
2021/01/15 03:16:58;;;;;;;11.20;9.50;;;;;;;;;;10114261;28;20046;-62
2021/01/15 03:21:56;;;;;;;20.40;13.73;;;;;;;;;;10114233;28;20070;-62
2021/01/15 03:26:55;;;;;;;12.45;9.65;;;;;;;;;;10118295;28;20424;-62
2021/01/15 03:31:52;;;;;;;13.80;10.57;;;;;;;;;;10122435;28;20077;-62
2021/01/15 03:36:50;;;;;;;14.05;11.27;;;;;;;;;;10121310;28;20448;-62
2021/01/15 03:41:47;;;;;;;16.33;11.68;;;;;;;;;;10121259;28;20078;-62
2021/01/15 03:46:45;;;;;;;15.82;11.25;;;;;;;;;;10121234;28;20043;-61
2021/01/15 03:51:43;;;;;;;13.38;10.63;;;;;;;;;;10121431;28;20078;-62
2021/01/15 03:56:41;;;;;;;13.25;10.63;;;;;;;;;;10120990;28;20055;-63
2021/01/15 04:01:40;;;;;;;12.45;11.15;;;;;;;;;;10120887;28;20082;-63
2021/01/15 04:06:38;;;;;;;11.52;9.27;;;;;;;;;;10120363;28;20055;-64
2021/01/15 04:11:36;;;;;;;15.45;11.20;;;;;;;;;;10119231;28;20548;-63
2021/01/15 04:16:33;;;;;;;11.38;9.90;;;;;;;;;;10120539;28;20069;-62
2021/01/15 04:21:30;;;;;;;16.25;11.73;;;;;;;;;;10120293;28;20074;-62
2021/01/15 04:26:28;;;;;;;17.45;13.57;;;;;;;;;;10120574;28;20050;-62
2021/01/15 04:31:26;;;;;;;15.07;12.07;;;;;;;;;;10102334;28;20101;-62
2021/01/15 04:36:25;;;;;;;14.45;11.23;;;;;;;;;;10118586;28;20417;-62
2021/01/15 04:41:22;;;;;;;17.75;12.95;;;;;;;;;;10119033;28;20113;-63
2021/01/15 04:46:21;;;;;;;18.25;11.60;;;;;;;;;;10119846;28;20078;-62
2021/01/15 04:51:20;;;;;;;20.25;14.93;;;;;;;;;;10117872;28;20076;-63
2021/01/15 04:56:17;;;;;;;11.00;9.35;;;;;;;;;;10118496;28;20078;-62
2021/01/15 05:01:16;;;;;;;26.88;17.48;;;;;;;;;;10119448;28;20042;-62
2021/01/15 05:06:15;;;;;;;16.63;11.70;;;;;;;;;;10118359;28;20519;-62
2021/01/15 05:11:13;;;;;;;18.60;13.60;;;;;;;;;;10117908;28;20097;-62
2021/01/15 05:16:11;;;;;;;30.13;16.25;;;;;;;;;;10117811;28;20481;-62
2021/01/15 05:21:08;;;;;;;26.45;12.98;;;;;;;;;;10117653;28;20051;-61
2021/01/15 05:26:06;;;;;;;28.33;14.15;;;;;;;;;;10117513;28;20762;-62
2021/01/15 05:31:03;;;;;;;30.73;14.32;;;;;;;;;;10117283;28;20454;-62
2021/01/15 05:36:01;;;;;;;39.53;19.58;;;;;;;;;;10116796;28;20086;-62
2021/01/15 05:40:58;;;;;;;39.05;23.25;;;;;;;;;;10117175;28;20042;-62
2021/01/15 05:46:07;;;;;;;40.72;20.30;;;;;;;;;;10116748;28;20242;-62
2021/01/15 05:51:05;;;;;;;52.00;22.75;;;;;;;;;;10112577;28;20500;-61
2021/01/15 05:56:03;;;;;;;89.93;40.25;;;;;;;;;;10112425;28;20082;-61
2021/01/15 06:01:00;;;;;;;59.42;34.40;;;;;;;;;;10112174;28;20113;-62
2021/01/15 06:05:59;;;;;;;31.58;22.17;;;;;;;;;;10114674;28;20074;-61
2021/01/15 06:10:57;;;;;;;41.88;23.23;;;;;;;;;;10115743;28;20098;-61
2021/01/15 06:15:54;;;;;;;62.20;27.20;;;;;;;;;;10115677;28;20050;-63
2021/01/15 06:21:05;;;;;;;54.08;23.85;;;;;;;;;;10116012;28;20081;-63
2021/01/15 06:26:06;;;;;;;22.90;16.30;;;;;;;;;;10116613;28;20642;-62
2021/01/15 06:31:05;;;;;;;20.27;12.32;;;;;;;;;;10114791;28;20086;-62
2021/01/15 06:36:04;;;;;;;17.65;11.98;;;;;;;;;;10116074;28;20070;-64
2021/01/15 06:41:16;;;;;;;15.52;12.35;;;;;;;;;;10115758;28;20431;-63
2021/01/15 06:46:17;;;;;;;19.42;16.30;;;;;;;;;;10116021;28;20047;-63
2021/01/15 06:51:15;;;;;;;43.00;31.58;;;;;;;;;;10115194;28;20085;-63
2021/01/15 06:56:17;;;;;;;44.92;31.50;;;;;;;;;;10115532;28;20060;-63
2021/01/15 07:01:16;;;;;;;27.23;24.48;;;;;;;;;;10118994;28;20047;-63
2021/01/15 07:06:20;;;;;;;47.10;28.75;;;;;;;;;;10123369;28;20066;-62
2021/01/15 07:11:21;;;;;;;57.83;42.15;;;;;;;;;;10121641;28;20093;-62
2021/01/15 07:16:24;;;;;;;86.75;74.05;;;;;;;;;;10123074;28;20450;-62
2021/01/15 07:21:27;;;;;;;140.07;83.47;;;;;;;;;;10122917;28;20050;-63
2021/01/15 07:26:26;;;;;;;110.43;60.08;;;;;;;;;;10122728;28;20079;-63
2021/01/15 07:31:24;;;;;;;84.80;45.15;;;;;;;;;;10122323;28;20442;-62
2021/01/15 07:36:31;;;;;;;29.17;21.50;;;;;;;;;;10121988;28;20106;-62
2021/01/15 07:41:39;;;;;;;42.08;22.58;;;;;;;;;;10122072;28;20047;-62
2021/01/15 07:46:46;;;;;;;39.90;22.65;;;;;;;;;;10121980;28;20492;-62
2021/01/15 07:52:06;;;;;;;40.67;24.77;;;;;;;;;;10121488;28;20097;-63
2021/01/15 07:57:11;;;;;;;44.63;23.50;;;;;;;;;;10120508;28;20085;-62
2021/01/15 08:02:08;;;;;;;53.83;29.55;;;;;;;;;;10120560;28;20075;-62
2021/01/15 08:07:10;;;;;;;48.05;26.10;;;;;;;;;;10120009;28;20046;-62
2021/01/15 08:12:07;;;;;;;57.80;33.05;;;;;;;;;;10118409;28;20098;-62
2021/01/15 08:17:10;;;;;;;27.38;18.00;;;;;;;;;;10119372;28;20446;-62
2021/01/15 08:22:08;;;;;;;57.50;29.48;;;;;;;;;;10119354;28;20083;-61
2021/01/15 08:27:06;;;;;;;73.93;35.20;;;;;;;;;;10120110;28;20042;-61
2021/01/15 08:32:05;;;;;;;52.67;26.73;;;;;;;;;;10119124;28;20089;-61
2021/01/15 08:37:04;;;;;;;52.45;26.33;;;;;;;;;;10119044;28;20038;-61
2021/01/15 08:42:01;;;;;;;50.38;26.27;;;;;;;;;;10118933;28;20046;-61
2021/01/15 08:46:58;;;;;;;50.60;28.83;;;;;;;;;;10118814;28;20051;-60
2021/01/15 08:51:57;;;;;;;37.75;22.50;;;;;;;;;;10118781;28;20078;-61
2021/01/15 08:56:55;;;;;;;24.50;16.25;;;;;;;;;;10117532;28;20050;-61
2021/01/15 09:01:53;;;;;;;50.58;24.75;;;;;;;;;;10118995;28;20066;-62
2021/01/15 09:06:52;;;;;;;47.15;26.23;;;;;;;;;;10099677;28;20055;-61
2021/01/15 09:11:51;;;;;;;48.92;30.58;;;;;;;;;;10117756;28;20093;-62
2021/01/15 09:16:49;;;;;;;37.13;22.10;;;;;;;;;;10118456;28;20042;-63
2021/01/15 09:21:50;;;;;;;37.40;26.15;;;;;;;;;;10100389;28;20488;-61
2021/01/15 09:26:48;;;;;;;36.95;22.75;;;;;;;;;;10117263;28;20050;-61
2021/01/15 09:31:45;;;;;;;50.95;32.67;;;;;;;;;;10100041;28;20508;-61
2021/01/15 09:36:45;;;;;;;38.08;25.17;;;;;;;;;;10117327;28;20074;-62
2021/01/15 09:41:43;;;;;;;28.80;19.92;;;;;;;;;;10117342;28;20050;-62
2021/01/15 09:46:45;;;;;;;26.85;20.73;;;;;;;;;;10117031;28;20097;-61
2021/01/15 09:51:47;;;;;;;33.40;21.33;;;;;;;;;;10116613;28;20082;-62
2021/01/15 09:56:45;;;;;;;33.03;23.30;;;;;;;;;;10116833;28;20131;-62
2021/01/15 10:01:42;;;;;;;48.53;29.15;;;;;;;;;;10116611;28;20050;-62
2021/01/15 10:06:41;;;;;;;40.28;24.35;;;;;;;;;;10116810;28;20050;-62
2021/01/15 10:11:39;;;;;;;74.82;43.05;;;;;;;;;;10116242;28;20086;-62
2021/01/15 10:16:37;;;;;;;23.00;17.30;;;;;;;;;;10116543;28;20047;-61
2021/01/15 10:21:39;;;;;;;64.78;38.22;;;;;;;;;;10115638;28;20047;-63
2021/01/15 10:26:37;;;;;;;46.20;31.52;;;;;;;;;;10116019;28;20485;-62
2021/01/15 10:31:36;;;;;;;29.15;21.20;;;;;;;;;;10116277;28;20070;-62
2021/01/15 10:36:34;;;;;;;33.40;23.13;;;;;;;;;;10123307;28;20047;-62
2021/01/15 10:41:31;;;;;;;41.85;27.60;;;;;;;;;;10129452;28;20077;-62
2021/01/15 10:46:30;;;;;;;34.72;23.75;;;;;;;;;;10128573;28;20042;-62
2021/01/15 10:51:28;;;;;;;54.95;32.38;;;;;;;;;;10128826;28;20113;-62
2021/01/15 10:56:25;;;;;;;58.55;33.15;;;;;;;;;;10128048;28;20047;-62
2021/01/15 11:01:23;;;;;;;36.28;25.15;;;;;;;;;;10128645;28;20093;-62
2021/01/15 11:06:20;;;;;;;41.15;27.48;;;;;;;;;;10127836;28;20551;-62
2021/01/15 11:11:18;;;;;;;66.22;40.50;;;;;;;;;;10127157;28;20090;-62
2021/01/15 11:16:16;;;;;;;28.63;22.17;;;;;;;;;;10128677;28;20081;-62
2021/01/15 11:21:13;;;;;;;42.13;27.67;;;;;;;;;;10128456;28;20445;-62
2021/01/15 11:26:10;;;;;;;51.65;37.45;;;;;;;;;;10128331;28;20053;-62
2021/01/15 11:31:09;;;;;;;38.13;27.50;;;;;;;;;;10127591;28;20113;-61
2021/01/15 11:36:09;;;;;;;34.50;24.50;;;;;;;;;;10127496;28;20070;-61
2021/01/15 11:41:06;;;;;;;57.58;32.30;;;;;;;;;;10128354;28;20042;-61
2021/01/15 11:46:04;;;;;;;41.22;27.10;;;;;;;;;;10125466;28;20070;-61
2021/01/15 11:51:19;;;;;;;57.17;37.80;;;;;;;;;;10121291;28;20082;-62
2021/01/15 11:56:16;;;;;;;29.92;23.65;;;;;;;;;;10121167;28;20077;-62
2021/01/15 12:01:15;;;;;;;24.25;18.13;;;;;;;;;;10120799;28;20051;-61
2021/01/15 12:06:12;;;;;;;33.28;25.40;;;;;;;;;;10120662;28;20061;-62
2021/01/15 12:11:11;;;;;;;82.03;42.72;;;;;;;;;;10120252;28;20498;-62
2021/01/15 12:16:10;;;;;;;67.25;34.45;;;;;;;;;;10120761;28;20046;-62
2021/01/15 12:21:07;;;;;;;46.50;29.95;;;;;;;;;;10119985;28;20085;-62
2021/01/15 12:26:04;;;;;;;55.70;32.20;;;;;;;;;;10120015;28;20527;-62
2021/01/15 12:31:02;;;;;;;47.50;26.58;;;;;;;;;;10120175;28;20100;-63
2021/01/15 12:36:00;;;;;;;196.20;88.95;;;;;;;;;;10119617;28;20465;-63
2021/01/15 12:40:58;;;;;;;62.88;35.22;;;;;;;;;;10119281;28;20055;-62
2021/01/15 12:45:56;;;;;;;353.50;128.80;;;;;;;;;;10119728;28;20551;-62
2021/01/15 12:50:54;;;;;;;64.30;34.28;;;;;;;;;;10118802;28;20089;-63
2021/01/15 12:55:52;;;;;;;90.97;44.42;;;;;;;;;;10119188;28;20046;-63
2021/01/15 13:00:50;;;;;;;57.75;34.33;;;;;;;;;;10118435;28;20053;-61
2021/01/15 13:05:47;;;;;;;141.48;64.70;;;;;;;;;;10118740;28;20081;-62
2021/01/15 13:10:46;;;;;;;119.40;55.92;;;;;;;;;;10117315;28;20513;-61
2021/01/15 13:15:43;;;;;;;78.85;42.08;;;;;;;;;;10117459;28;20046;-61
2021/01/15 13:20:41;;;;;;;41.00;25.95;;;;;;;;;;10117661;28;20066;-62
2021/01/15 13:25:38;;;;;;;147.25;62.58;;;;;;;;;;10117905;28;20071;-61
2021/01/15 13:30:37;;;;;;;83.20;41.92;;;;;;;;;;10117147;28;20086;-63
2021/01/15 13:35:44;;;;;;;94.18;49.47;;;;;;;;;;10116801;28;20077;-63
2021/01/15 13:40:41;;;;;;;78.45;45.40;;;;;;;;;;10117539;28;20082;-62
2021/01/15 13:45:40;;;;;;;100.47;55.63;;;;;;;;;;10117193;28;20067;-61
2021/01/15 13:50:45;;;;;;;551.00;233.15;;;;;;;;;;10116578;28;20109;-61
2021/01/15 13:55:43;;;;;;;79.32;47.65;;;;;;;;;;10116147;28;20054;-62
2021/01/15 14:00:42;;;;;;;63.85;43.70;;;;;;;;;;10115660;28;20078;-61
2021/01/15 14:05:39;;;;;;;55.30;35.72;;;;;;;;;;10115523;28;20517;-62
2021/01/15 14:10:37;;;;;;;69.53;40.58;;;;;;;;;;10115085;28;20182;-63
2021/01/15 14:15:34;;;;;;;107.07;61.90;;;;;;;;;;10115585;28;20306;-63
2021/01/15 14:20:33;;;;;;;110.32;56.30;;;;;;;;;;10116201;28;20046;-63
2021/01/15 14:25:30;;;;;;;167.85;72.65;;;;;;;;;;10097888;28;20433;-62
2021/01/15 14:30:27;;;;;;;266.20;108.50;;;;;;;;;;10116341;28;20078;-63
2021/01/15 14:35:25;;;;;;;84.13;45.03;;;;;;;;;;10116223;28;20038;-62
2021/01/15 14:40:25;;;;;;;86.80;43.53;;;;;;;;;;10114908;28;20046;-62
2021/01/15 14:45:22;;;;;;;140.35;69.95;;;;;;;;;;10115707;28;20298;-62
2021/01/15 14:50:19;;;;;;;212.43;102.18;;;;;;;;;;10115514;28;20086;-62
2021/01/15 14:55:17;;;;;;;86.30;49.85;;;;;;;;;;10115335;28;20113;-62
2021/01/15 15:00:18;;;;;;;84.65;46.97;;;;;;;;;;10115373;28;20072;-61
2021/01/15 15:05:16;;;;;;;68.65;43.03;;;;;;;;;;10115282;28;20042;-61
2021/01/15 15:10:14;;;;;;;68.72;43.35;;;;;;;;;;10113981;28;20079;-61
2021/01/15 15:15:11;;;;;;;60.00;37.13;;;;;;;;;;10115046;28;20070;-63
2021/01/15 15:20:10;;;;;;;75.78;45.00;;;;;;;;;;10114677;28;20075;-63
2021/01/15 15:25:08;;;;;;;50.03;34.95;;;;;;;;;;10121821;28;20097;-62
2021/01/15 15:30:09;;;;;;;95.43;44.45;;;;;;;;;;10121572;28;20469;-62
2021/01/15 15:35:07;;;;;;;100.57;55.10;;;;;;;;;;10121843;28;20078;-63
2021/01/15 15:40:08;;;;;;;95.57;58.92;;;;;;;;;;10121028;28;20488;-62
2021/01/15 15:45:06;;;;;;;70.45;45.53;;;;;;;;;;10121808;28;20050;-62
2021/01/15 15:50:03;;;;;;;70.72;41.20;;;;;;;;;;10121223;28;20467;-62
2021/01/15 15:55:01;;;;;;;42.40;29.25;;;;;;;;;;10122764;28;20081;-62
2021/01/15 15:59:59;;;;;;;44.72;28.35;;;;;;;;;;10121866;28;20043;-62
2021/01/15 16:04:57;;;;;;;77.97;46.47;;;;;;;;;;10120765;28;20054;-61
2021/01/15 16:09:54;;;;;;;63.05;41.95;;;;;;;;;;10102765;28;20058;-62
2021/01/15 16:14:51;;;;;;;69.00;46.25;;;;;;;;;;10120259;28;20070;-62
2021/01/15 16:19:49;;;;;;;56.65;41.45;;;;;;;;;;10120321;28;20551;-61
2021/01/15 16:24:47;;;;;;;75.43;50.22;;;;;;;;;;10119941;28;20369;-62
2021/01/15 16:29:44;;;;;;;79.03;44.97;;;;;;;;;;10120119;28;20054;-60
2021/01/15 16:34:44;;;;;;;49.95;31.10;;;;;;;;;;10118198;28;20164;-61
2021/01/15 16:39:42;;;;;;;41.83;31.33;;;;;;;;;;10119497;28;20136;-62
2021/01/15 16:44:40;;;;;;;59.47;39.45;;;;;;;;;;10119342;28;20051;-62
2021/01/15 16:49:38;;;;;;;64.35;37.30;;;;;;;;;;10114091;28;20081;-62
2021/01/15 16:54:35;;;;;;;51.53;33.20;;;;;;;;;;10116200;28;20101;-61
2021/01/15 16:59:33;;;;;;;39.70;28.33;;;;;;;;;;10118694;28;20038;-63
2021/01/15 17:04:30;;;;;;;51.90;35.08;;;;;;;;;;10118828;28;20540;-61
2021/01/15 17:09:28;;;;;;;63.85;39.78;;;;;;;;;;10118129;28;20090;-62
2021/01/15 17:14:26;;;;;;;52.90;35.28;;;;;;;;;;10117813;28;20131;-63
2021/01/15 17:19:24;;;;;;;57.95;35.78;;;;;;;;;;10117368;28;20054;-63
2021/01/15 17:24:22;;;;;;;152.35;72.70;;;;;;;;;;10115730;28;20171;-63
2021/01/15 17:29:19;;;;;;;70.28;37.53;;;;;;;;;;10117246;28;20046;-63
2021/01/15 17:34:17;;;;;;;67.15;38.90;;;;;;;;;;10117383;28;20085;-62
2021/01/15 17:39:19;;;;;;;65.53;39.45;;;;;;;;;;10117083;28;20051;-63
2021/01/15 17:44:17;;;;;;;84.75;49.55;;;;;;;;;;10115867;28;20358;-62
2021/01/15 17:49:16;;;;;;;67.35;41.13;;;;;;;;;;10116655;28;20046;-62
2021/01/15 17:54:13;;;;;;;73.22;42.50;;;;;;;;;;10117088;28;20489;-63
2021/01/15 17:59:11;;;;;;;53.50;35.28;;;;;;;;;;10116717;28;20082;-60
2021/01/15 18:04:08;;;;;;;49.70;33.60;;;;;;;;;;10115886;28;20093;-63
2021/01/15 18:09:06;;;;;;;43.45;30.25;;;;;;;;;;10115640;28;20062;-61
2021/01/15 18:14:04;;;;;;;43.65;27.67;;;;;;;;;;10115962;28;20465;-62
2021/01/15 18:19:02;;;;;;;37.17;23.95;;;;;;;;;;10115786;28;20057;-62
2021/01/15 18:24:00;;;;;;;48.45;31.25;;;;;;;;;;10115847;28;20088;-62
2021/01/15 18:28:57;;;;;;;38.47;28.20;;;;;;;;;;10115308;28;20055;-62
2021/01/15 18:33:54;;;;;;;31.70;24.52;;;;;;;;;;10114735;28;20078;-64
2021/01/15 18:38:53;;;;;;;41.67;27.20;;;;;;;;;;10115426;28;20054;-63
2021/01/15 18:43:52;;;;;;;38.75;25.70;;;;;;;;;;10115527;28;20070;-63
2021/01/15 18:48:49;;;;;;;86.13;50.40;;;;;;;;;;10115281;28;20074;-61
2021/01/15 18:53:49;;;;;;;59.15;36.53;;;;;;;;;;10115293;28;20437;-61
2021/01/15 18:58:47;;;;;;;124.75;62.30;;;;;;;;;;10121372;28;20043;-63
2021/01/15 19:03:45;;;;;;;73.55;42.13;;;;;;;;;;10123323;28;20047;-62
2021/01/15 19:08:42;;;;;;;131.50;67.95;;;;;;;;;;10122316;28;20516;-62
2021/01/15 19:13:40;;;;;;;45.03;31.90;;;;;;;;;;10122616;28;20484;-63
2021/01/15 19:18:39;;;;;;;49.72;32.83;;;;;;;;;;10122412;28;20078;-63
2021/01/15 19:23:38;;;;;;;64.32;41.30;;;;;;;;;;10122278;28;20525;-62
2021/01/15 19:28:35;;;;;;;52.80;32.92;;;;;;;;;;10121693;28;20046;-63
2021/01/15 19:33:33;;;;;;;43.67;28.02;;;;;;;;;;10121906;28;20516;-63
2021/01/15 19:38:31;;;;;;;46.95;28.02;;;;;;;;;;10120864;28;20046;-62
2021/01/15 19:43:28;;;;;;;42.33;27.60;;;;;;;;;;10120318;28;20058;-63
2021/01/15 19:48:26;;;;;;;71.70;37.35;;;;;;;;;;10119914;28;20093;-62
2021/01/15 19:53:24;;;;;;;85.68;45.10;;;;;;;;;;10120699;28;20468;-63
2021/01/15 19:58:25;;;;;;;41.25;24.23;;;;;;;;;;10119808;28;20074;-61
2021/01/15 20:03:23;;;;;;;47.45;26.25;;;;;;;;;;10120533;28;20504;-62
2021/01/15 20:08:21;;;;;;;42.75;24.38;;;;;;;;;;10118755;28;20089;-62
2021/01/15 20:13:18;;;;;;;40.85;21.70;;;;;;;;;;10118932;28;20501;-63
2021/01/15 20:18:17;;;;;;;35.92;20.77;;;;;;;;;;10120024;28;20445;-63
2021/01/15 20:23:16;;;;;;;42.97;21.88;;;;;;;;;;10119973;28;20054;-62
2021/01/15 20:28:14;;;;;;;44.70;22.83;;;;;;;;;;10118677;28;20051;-62
2021/01/15 20:33:11;;;;;;;39.88;25.98;;;;;;;;;;10118879;28;20082;-61
2021/01/15 20:38:10;;;;;;;71.03;37.30;;;;;;;;;;10118716;28;20077;-62
2021/01/15 20:43:07;;;;;;;154.50;64.68;;;;;;;;;;10119105;28;20093;-62
2021/01/15 20:48:05;;;;;;;151.05;57.60;;;;;;;;;;10118827;28;20085;-63
2021/01/15 20:53:03;;;;;;;40.67;22.70;;;;;;;;;;10118681;28;20085;-63
2021/01/15 20:58:01;;;;;;;47.00;24.80;;;;;;;;;;10117809;28;20436;-62
2021/01/15 21:03:00;;;;;;;109.88;45.53;;;;;;;;;;10115146;28;20079;-63
2021/01/15 21:07:57;;;;;;;61.75;31.20;;;;;;;;;;10117481;28;20050;-63
2021/01/15 21:12:55;;;;;;;41.00;27.10;;;;;;;;;;10117311;28;20560;-63
2021/01/15 21:17:53;;;;;;;54.35;35.10;;;;;;;;;;10116438;28;20047;-63
2021/01/15 21:22:51;;;;;;;149.98;73.85;;;;;;;;;;10117961;28;20074;-63
2021/01/15 21:27:50;;;;;;;138.13;73.57;;;;;;;;;;10116986;28;20077;-63
2021/01/15 21:32:48;;;;;;;151.20;88.10;;;;;;;;;;10116792;28;20078;-63
2021/01/15 21:37:50;;;;;;;139.43;73.20;;;;;;;;;;10116632;28;20048;-63
2021/01/15 21:42:47;;;;;;;378.38;187.73;;;;;;;;;;10115961;28;20503;-63
2021/01/15 21:47:45;;;;;;;406.30;197.82;;;;;;;;;;10115401;28;20523;-63
2021/01/15 21:52:46;;;;;;;260.02;140.50;;;;;;;;;;10115327;28;20086;-63
2021/01/15 21:57:45;;;;;;;179.55;102.40;;;;;;;;;;10116163;28;20089;-63
2021/01/15 22:02:46;;;;;;;110.45;64.15;;;;;;;;;;10116187;28;20085;-63
2021/01/15 22:07:44;;;;;;;60.38;40.05;;;;;;;;;;10115440;28;20050;-63
2021/01/15 22:12:41;;;;;;;77.15;49.25;;;;;;;;;;10115962;28;20093;-63
2021/01/15 22:17:39;;;;;;;47.22;29.63;;;;;;;;;;10114860;28;20085;-63
2021/01/15 22:22:38;;;;;;;61.00;35.97;;;;;;;;;;10115087;28;20135;-62
2021/01/15 22:27:35;;;;;;;82.10;41.80;;;;;;;;;;10115305;28;20050;-62
2021/01/15 22:32:33;;;;;;;75.03;42.15;;;;;;;;;;10114035;28;20082;-63
2021/01/15 22:37:31;;;;;;;66.20;36.92;;;;;;;;;;10114978;28;20089;-63
2021/01/15 22:42:28;;;;;;;42.72;24.98;;;;;;;;;;10115306;28;20535;-63
2021/01/15 22:47:25;;;;;;;80.53;42.80;;;;;;;;;;10114434;28;20433;-63
2021/01/15 22:52:23;;;;;;;73.88;36.30;;;;;;;;;;10114221;28;20085;-63
2021/01/15 22:57:21;;;;;;;66.45;35.20;;;;;;;;;;10116451;28;20054;-63
2021/01/15 23:02:19;;;;;;;70.90;36.25;;;;;;;;;;10114542;28;20093;-63
2021/01/15 23:07:16;;;;;;;70.30;37.13;;;;;;;;;;10114768;28;20477;-62
2021/01/15 23:12:14;;;;;;;131.48;61.35;;;;;;;;;;10114361;28;20069;-61
2021/01/15 23:17:12;;;;;;;155.48;69.43;;;;;;;;;;10114450;28;20509;-62
2021/01/15 23:22:09;;;;;;;129.00;71.47;;;;;;;;;;10113959;28;20469;-62
2021/01/15 23:27:07;;;;;;;105.18;57.33;;;;;;;;;;10113942;28;20078;-62
2021/01/15 23:32:04;;;;;;;89.78;44.92;;;;;;;;;;10113075;28;20087;-62
2021/01/15 23:37:02;;;;;;;111.82;58.30;;;;;;;;;;10114061;28;20201;-63
2021/01/15 23:42:00;;;;;;;118.90;55.92;;;;;;;;;;10115681;28;20062;-63
2021/01/15 23:46:57;;;;;;;87.43;45.70;;;;;;;;;;10121185;28;20046;-61
2021/01/15 23:51:56;;;;;;;87.22;42.15;;;;;;;;;;10120933;28;20042;-62
2021/01/15 23:56:54;;;;;;;57.40;30.83;;;;;;;;;;10121070;28;20085;-62
